sensor_id;sensor_type;location;lat;lon;timestamp;P1;durP1;ratioP1;P2;durP2;ratioP2
14923;SDS011;7554;43.600;1.480;2022-12-13T00:02:10;6.50;;;3.90;;
14923;SDS011;7554;43.600;1.480;2022-12-13T00:04:38;4.83;;;2.63;;
14923;SDS011;7554;43.600;1.480;2022-12-13T00:07:05;4.40;;;3.07;;
14923;SDS011;7554;43.600;1.480;2022-12-13T00:09:33;6.80;;;4.00;;
14923;SDS011;7554;43.600;1.480;2022-12-13T00:12:00;5.83;;;3.07;;
14923;SDS011;7554;43.600;1.480;2022-12-13T00:14:29;4.17;;;2.93;;
14923;SDS011;7554;43.600;1.480;2022-12-13T00:16:56;4.87;;;3.00;;
14923;SDS011;7554;43.600;1.480;2022-12-13T00:19:24;4.77;;;3.33;;
14923;SDS011;7554;43.600;1.480;2022-12-13T00:21:51;5.73;;;3.20;;
14923;SDS011;7554;43.600;1.480;2022-12-13T00:24:18;4.50;;;3.27;;
14923;SDS011;7554;43.600;1.480;2022-12-13T00:26:46;4.67;;;2.83;;
14923;SDS011;7554;43.600;1.480;2022-12-13T00:29:13;4.70;;;2.80;;
14923;SDS011;7554;43.600;1.480;2022-12-13T00:31:42;4.73;;;2.80;;
14923;SDS011;7554;43.600;1.480;2022-12-13T00:34:09;3.13;;;2.60;;
14923;SDS011;7554;43.600;1.480;2022-12-13T00:36:37;4.80;;;2.63;;
14923;SDS011;7554;43.600;1.480;2022-12-13T00:39:05;4.20;;;3.00;;
14923;SDS011;7554;43.600;1.480;2022-12-13T00:41:32;5.73;;;3.30;;
14923;SDS011;7554;43.600;1.480;2022-12-13T00:44:02;4.73;;;3.30;;
14923;SDS011;7554;43.600;1.480;2022-12-13T00:46:30;2.50;;;1.87;;
14923;SDS011;7554;43.600;1.480;2022-12-13T00:49:00;5.20;;;2.57;;
14923;SDS011;7554;43.600;1.480;2022-12-13T00:51:28;4.40;;;3.03;;
14923;SDS011;7554;43.600;1.480;2022-12-13T00:53:57;5.77;;;2.57;;
14923;SDS011;7554;43.600;1.480;2022-12-13T00:56:25;4.07;;;2.77;;
14923;SDS011;7554;43.600;1.480;2022-12-13T00:58:55;4.13;;;2.70;;
14923;SDS011;7554;43.600;1.480;2022-12-13T01:01:23;3.50;;;2.67;;
14923;SDS011;7554;43.600;1.480;2022-12-13T01:03:52;4.13;;;3.17;;
14923;SDS011;7554;43.600;1.480;2022-12-13T01:06:22;5.10;;;3.60;;
14923;SDS011;7554;43.600;1.480;2022-12-13T01:08:53;7.40;;;3.57;;
14923;SDS011;7554;43.600;1.480;2022-12-13T01:11:21;4.57;;;3.33;;
14923;SDS011;7554;43.600;1.480;2022-12-13T01:13:49;4.60;;;3.30;;
14923;SDS011;7554;43.600;1.480;2022-12-13T01:16:16;4.57;;;3.37;;
14923;SDS011;7554;43.600;1.480;2022-12-13T01:18:43;5.70;;;3.57;;
14923;SDS011;7554;43.600;1.480;2022-12-13T01:21:11;6.53;;;4.20;;
14923;SDS011;7554;43.600;1.480;2022-12-13T01:23:42;5.93;;;4.00;;
14923;SDS011;7554;43.600;1.480;2022-12-13T01:26:11;6.30;;;3.83;;
14923;SDS011;7554;43.600;1.480;2022-12-13T01:28:40;5.37;;;3.83;;
14923;SDS011;7554;43.600;1.480;2022-12-13T01:31:08;4.80;;;3.63;;
14923;SDS011;7554;43.600;1.480;2022-12-13T01:33:38;6.53;;;4.33;;
14923;SDS011;7554;43.600;1.480;2022-12-13T01:38:53;6.60;;;4.37;;
14923;SDS011;7554;43.600;1.480;2022-12-13T01:41:21;7.07;;;4.70;;
14923;SDS011;7554;43.600;1.480;2022-12-13T01:43:50;5.77;;;4.60;;
14923;SDS011;7554;43.600;1.480;2022-12-13T01:46:24;7.00;;;4.57;;
14923;SDS011;7554;43.600;1.480;2022-12-13T01:48:52;6.50;;;4.47;;
14923;SDS011;7554;43.600;1.480;2022-12-13T01:51:25;5.93;;;4.27;;
14923;SDS011;7554;43.600;1.480;2022-12-13T01:53:58;6.70;;;4.70;;
14923;SDS011;7554;43.600;1.480;2022-12-13T01:56:29;7.20;;;4.93;;
14923;SDS011;7554;43.600;1.480;2022-12-13T01:59:00;8.57;;;5.13;;
14923;SDS011;7554;43.600;1.480;2022-12-13T02:01:29;7.67;;;4.87;;
14923;SDS011;7554;43.600;1.480;2022-12-13T02:03:57;8.00;;;5.37;;
14923;SDS011;7554;43.600;1.480;2022-12-13T02:06:26;8.07;;;5.90;;
14923;SDS011;7554;43.600;1.480;2022-12-13T02:09:00;6.47;;;4.60;;
14923;SDS011;7554;43.600;1.480;2022-12-13T02:11:29;6.77;;;4.30;;
14923;SDS011;7554;43.600;1.480;2022-12-13T02:13:58;8.17;;;5.43;;
14923;SDS011;7554;43.600;1.480;2022-12-13T02:16:27;6.77;;;4.83;;
14923;SDS011;7554;43.600;1.480;2022-12-13T02:19:24;7.40;;;4.70;;
14923;SDS011;7554;43.600;1.480;2022-12-13T02:22:15;5.60;;;3.50;;
14923;SDS011;7554;43.600;1.480;2022-12-13T02:25:10;5.10;;;3.23;;
14923;SDS011;7554;43.600;1.480;2022-12-13T02:27:58;5.40;;;3.90;;
14923;SDS011;7554;43.600;1.480;2022-12-13T02:30:40;3.67;;;3.27;;
14923;SDS011;7554;43.600;1.480;2022-12-13T02:36:06;6.63;;;4.10;;
14923;SDS011;7554;43.600;1.480;2022-12-13T02:38:38;5.03;;;4.17;;
14923;SDS011;7554;43.600;1.480;2022-12-13T02:41:14;7.13;;;4.17;;
14923;SDS011;7554;43.600;1.480;2022-12-13T02:43:46;5.93;;;3.73;;
14923;SDS011;7554;43.600;1.480;2022-12-13T02:46:19;5.70;;;4.20;;
14923;SDS011;7554;43.600;1.480;2022-12-13T02:48:48;5.93;;;4.27;;
14923;SDS011;7554;43.600;1.480;2022-12-13T02:51:20;5.00;;;3.53;;
14923;SDS011;7554;43.600;1.480;2022-12-13T02:53:48;4.10;;;3.70;;
14923;SDS011;7554;43.600;1.480;2022-12-13T02:56:15;5.67;;;4.13;;
14923;SDS011;7554;43.600;1.480;2022-12-13T02:58:44;7.03;;;4.47;;
14923;SDS011;7554;43.600;1.480;2022-12-13T03:01:20;5.57;;;3.90;;
14923;SDS011;7554;43.600;1.480;2022-12-13T03:04:05;7.27;;;4.03;;
14923;SDS011;7554;43.600;1.480;2022-12-13T03:06:39;5.43;;;4.47;;
14923;SDS011;7554;43.600;1.480;2022-12-13T03:09:17;7.57;;;4.03;;
14923;SDS011;7554;43.600;1.480;2022-12-13T03:11:56;6.30;;;4.20;;
14923;SDS011;7554;43.600;1.480;2022-12-13T03:14:52;7.27;;;4.47;;
14923;SDS011;7554;43.600;1.480;2022-12-13T03:17:25;6.07;;;4.13;;
14923;SDS011;7554;43.600;1.480;2022-12-13T03:19:58;5.17;;;4.00;;
14923;SDS011;7554;43.600;1.480;2022-12-13T03:22:27;5.20;;;3.53;;
14923;SDS011;7554;43.600;1.480;2022-12-13T03:24:54;7.07;;;4.33;;
14923;SDS011;7554;43.600;1.480;2022-12-13T03:27:22;10.73;;;4.23;;
14923;SDS011;7554;43.600;1.480;2022-12-13T03:29:49;5.93;;;4.77;;
14923;SDS011;7554;43.600;1.480;2022-12-13T03:32:16;8.27;;;5.00;;
14923;SDS011;7554;43.600;1.480;2022-12-13T03:34:45;7.10;;;4.30;;
14923;SDS011;7554;43.600;1.480;2022-12-13T03:37:14;7.03;;;4.83;;
14923;SDS011;7554;43.600;1.480;2022-12-13T03:39:42;7.80;;;4.77;;
14923;SDS011;7554;43.600;1.480;2022-12-13T03:42:09;6.70;;;4.57;;
14923;SDS011;7554;43.600;1.480;2022-12-13T03:44:37;8.07;;;5.30;;
14923;SDS011;7554;43.600;1.480;2022-12-13T03:47:04;6.97;;;4.80;;
14923;SDS011;7554;43.600;1.480;2022-12-13T03:49:32;6.50;;;4.57;;
14923;SDS011;7554;43.600;1.480;2022-12-13T03:52:00;7.40;;;5.10;;
14923;SDS011;7554;43.600;1.480;2022-12-13T03:54:28;7.37;;;5.03;;
14923;SDS011;7554;43.600;1.480;2022-12-13T03:56:55;8.20;;;4.80;;
14923;SDS011;7554;43.600;1.480;2022-12-13T03:59:24;6.60;;;5.00;;
14923;SDS011;7554;43.600;1.480;2022-12-13T04:01:51;7.87;;;5.47;;
14923;SDS011;7554;43.600;1.480;2022-12-13T04:04:19;7.27;;;5.00;;
14923;SDS011;7554;43.600;1.480;2022-12-13T04:06:46;9.33;;;5.50;;
14923;SDS011;7554;43.600;1.480;2022-12-13T04:09:15;7.53;;;5.07;;
14923;SDS011;7554;43.600;1.480;2022-12-13T04:11:43;7.07;;;5.07;;
14923;SDS011;7554;43.600;1.480;2022-12-13T04:14:28;9.43;;;5.47;;
14923;SDS011;7554;43.600;1.480;2022-12-13T04:16:55;8.83;;;5.50;;
14923;SDS011;7554;43.600;1.480;2022-12-13T04:19:23;8.50;;;5.37;;
14923;SDS011;7554;43.600;1.480;2022-12-13T04:21:50;8.97;;;5.67;;
14923;SDS011;7554;43.600;1.480;2022-12-13T04:24:19;8.00;;;5.53;;
14923;SDS011;7554;43.600;1.480;2022-12-13T04:26:47;9.17;;;5.87;;
14923;SDS011;7554;43.600;1.480;2022-12-13T04:29:14;8.60;;;5.23;;
14923;SDS011;7554;43.600;1.480;2022-12-13T04:31:42;7.97;;;5.50;;
14923;SDS011;7554;43.600;1.480;2022-12-13T04:34:09;10.33;;;5.87;;
14923;SDS011;7554;43.600;1.480;2022-12-13T04:36:37;7.60;;;5.27;;
14923;SDS011;7554;43.600;1.480;2022-12-13T04:39:06;9.77;;;5.63;;
14923;SDS011;7554;43.600;1.480;2022-12-13T04:41:36;9.37;;;6.10;;
14923;SDS011;7554;43.600;1.480;2022-12-13T04:44:04;11.07;;;6.07;;
14923;SDS011;7554;43.600;1.480;2022-12-13T04:46:33;8.20;;;5.67;;
14923;SDS011;7554;43.600;1.480;2022-12-13T04:49:00;8.63;;;5.80;;
14923;SDS011;7554;43.600;1.480;2022-12-13T04:51:28;8.80;;;6.27;;
14923;SDS011;7554;43.600;1.480;2022-12-13T04:53:55;9.47;;;6.07;;
14923;SDS011;7554;43.600;1.480;2022-12-13T04:56:23;9.23;;;6.60;;
14923;SDS011;7554;43.600;1.480;2022-12-13T04:58:52;11.37;;;6.27;;
14923;SDS011;7554;43.600;1.480;2022-12-13T05:01:19;12.43;;;6.53;;
14923;SDS011;7554;43.600;1.480;2022-12-13T05:03:47;10.70;;;6.07;;
14923;SDS011;7554;43.600;1.480;2022-12-13T05:06:14;14.23;;;7.13;;
14923;SDS011;7554;43.600;1.480;2022-12-13T05:08:42;11.33;;;6.50;;
14923;SDS011;7554;43.600;1.480;2022-12-13T05:11:09;15.80;;;7.37;;
14923;SDS011;7554;43.600;1.480;2022-12-13T05:13:37;11.77;;;6.07;;
14923;SDS011;7554;43.600;1.480;2022-12-13T05:16:06;12.40;;;7.07;;
14923;SDS011;7554;43.600;1.480;2022-12-13T05:18:35;11.53;;;6.90;;
14923;SDS011;7554;43.600;1.480;2022-12-13T05:21:03;11.40;;;6.23;;
14923;SDS011;7554;43.600;1.480;2022-12-13T05:23:31;9.77;;;6.00;;
14923;SDS011;7554;43.600;1.480;2022-12-13T05:25:59;11.30;;;6.43;;
14923;SDS011;7554;43.600;1.480;2022-12-13T05:28:27;9.00;;;5.87;;
14923;SDS011;7554;43.600;1.480;2022-12-13T05:30:56;11.93;;;7.07;;
14923;SDS011;7554;43.600;1.480;2022-12-13T05:33:26;14.85;;;9.57;;
14923;SDS011;7554;43.600;1.480;2022-12-13T05:48:15;12.13;;;8.77;;
14923;SDS011;7554;43.600;1.480;2022-12-13T05:50:43;11.50;;;6.77;;
14923;SDS011;7554;43.600;1.480;2022-12-13T05:53:11;10.70;;;6.23;;
14923;SDS011;7554;43.600;1.480;2022-12-13T05:55:39;10.20;;;5.83;;
14923;SDS011;7554;43.600;1.480;2022-12-13T05:58:08;9.93;;;6.00;;
14923;SDS011;7554;43.600;1.480;2022-12-13T06:00:37;10.90;;;7.30;;
14923;SDS011;7554;43.600;1.480;2022-12-13T06:03:05;13.70;;;7.57;;
14923;SDS011;7554;43.600;1.480;2022-12-13T06:05:34;12.10;;;6.83;;
14923;SDS011;7554;43.600;1.480;2022-12-13T06:08:01;11.47;;;6.10;;
14923;SDS011;7554;43.600;1.480;2022-12-13T06:10:29;9.90;;;6.57;;
14923;SDS011;7554;43.600;1.480;2022-12-13T06:12:56;9.87;;;6.37;;
14923;SDS011;7554;43.600;1.480;2022-12-13T06:15:25;10.83;;;7.13;;
14923;SDS011;7554;43.600;1.480;2022-12-13T06:17:52;12.77;;;7.37;;
14923;SDS011;7554;43.600;1.480;2022-12-13T06:20:20;14.27;;;7.90;;
14923;SDS011;7554;43.600;1.480;2022-12-13T06:22:49;12.80;;;7.27;;
14923;SDS011;7554;43.600;1.480;2022-12-13T06:25:16;16.33;;;9.00;;
14923;SDS011;7554;43.600;1.480;2022-12-13T06:27:44;14.53;;;8.17;;
14923;SDS011;7554;43.600;1.480;2022-12-13T06:30:11;15.30;;;8.07;;
14923;SDS011;7554;43.600;1.480;2022-12-13T06:32:39;14.03;;;8.50;;
14923;SDS011;7554;43.600;1.480;2022-12-13T06:35:07;15.63;;;9.20;;
14923;SDS011;7554;43.600;1.480;2022-12-13T06:37:35;14.17;;;8.47;;
14923;SDS011;7554;43.600;1.480;2022-12-13T06:40:06;14.90;;;9.00;;
14923;SDS011;7554;43.600;1.480;2022-12-13T06:42:35;16.40;;;9.43;;
14923;SDS011;7554;43.600;1.480;2022-12-13T06:45:03;20.33;;;9.87;;
14923;SDS011;7554;43.600;1.480;2022-12-13T06:47:31;13.53;;;9.00;;
14923;SDS011;7554;43.600;1.480;2022-12-13T06:49:58;16.33;;;10.00;;
14923;SDS011;7554;43.600;1.480;2022-12-13T06:52:26;21.03;;;11.83;;
14923;SDS011;7554;43.600;1.480;2022-12-13T06:54:54;23.37;;;14.07;;
14923;SDS011;7554;43.600;1.480;2022-12-13T06:57:22;26.00;;;14.60;;
14923;SDS011;7554;43.600;1.480;2022-12-13T06:59:50;24.73;;;13.60;;
14923;SDS011;7554;43.600;1.480;2022-12-13T07:02:18;21.10;;;11.70;;
14923;SDS011;7554;43.600;1.480;2022-12-13T07:04:45;18.77;;;11.10;;
14923;SDS011;7554;43.600;1.480;2022-12-13T07:07:13;21.60;;;11.10;;
14923;SDS011;7554;43.600;1.480;2022-12-13T07:09:40;22.43;;;11.67;;
14923;SDS011;7554;43.600;1.480;2022-12-13T07:12:08;16.80;;;9.37;;
14923;SDS011;7554;43.600;1.480;2022-12-13T07:14:37;17.90;;;9.63;;
14923;SDS011;7554;43.600;1.480;2022-12-13T07:17:04;20.30;;;10.27;;
14923;SDS011;7554;43.600;1.480;2022-12-13T07:19:32;14.43;;;9.53;;
14923;SDS011;7554;43.600;1.480;2022-12-13T07:21:59;16.77;;;9.53;;
14923;SDS011;7554;43.600;1.480;2022-12-13T07:24:27;28.20;;;15.93;;
14923;SDS011;7554;43.600;1.480;2022-12-13T07:26:54;22.30;;;13.83;;
14923;SDS011;7554;43.600;1.480;2022-12-13T07:29:22;21.70;;;12.77;;
14923;SDS011;7554;43.600;1.480;2022-12-13T07:31:51;23.13;;;14.43;;
14923;SDS011;7554;43.600;1.480;2022-12-13T07:34:19;21.07;;;12.33;;
14923;SDS011;7554;43.600;1.480;2022-12-13T07:36:48;17.50;;;9.47;;
14923;SDS011;7554;43.600;1.480;2022-12-13T07:39:15;22.23;;;11.13;;
14923;SDS011;7554;43.600;1.480;2022-12-13T07:41:43;21.93;;;10.83;;
14923;SDS011;7554;43.600;1.480;2022-12-13T07:44:10;21.80;;;11.27;;
14923;SDS011;7554;43.600;1.480;2022-12-13T07:46:38;23.97;;;11.23;;
14923;SDS011;7554;43.600;1.480;2022-12-13T07:49:07;20.83;;;12.27;;
14923;SDS011;7554;43.600;1.480;2022-12-13T07:51:34;22.50;;;11.70;;
14923;SDS011;7554;43.600;1.480;2022-12-13T07:54:02;22.40;;;13.60;;
14923;SDS011;7554;43.600;1.480;2022-12-13T07:56:29;22.90;;;12.70;;
14923;SDS011;7554;43.600;1.480;2022-12-13T07:58:57;16.70;;;9.40;;
14923;SDS011;7554;43.600;1.480;2022-12-13T08:01:25;20.17;;;11.50;;
14923;SDS011;7554;43.600;1.480;2022-12-13T08:03:53;17.10;;;10.23;;
14923;SDS011;7554;43.600;1.480;2022-12-13T08:06:22;18.13;;;11.73;;
14923;SDS011;7554;43.600;1.480;2022-12-13T08:08:53;21.60;;;11.47;;
14923;SDS011;7554;43.600;1.480;2022-12-13T08:11:21;21.00;;;11.53;;
14923;SDS011;7554;43.600;1.480;2022-12-13T08:13:48;24.63;;;11.77;;
14923;SDS011;7554;43.600;1.480;2022-12-13T08:16:16;19.80;;;11.70;;
14923;SDS011;7554;43.600;1.480;2022-12-13T08:18:43;32.20;;;21.03;;
14923;SDS011;7554;43.600;1.480;2022-12-13T08:21:12;23.70;;;13.30;;
14923;SDS011;7554;43.600;1.480;2022-12-13T08:23:41;23.33;;;12.40;;
14923;SDS011;7554;43.600;1.480;2022-12-13T08:26:08;21.63;;;12.33;;
14923;SDS011;7554;43.600;1.480;2022-12-13T08:28:35;22.90;;;12.40;;
14923;SDS011;7554;43.600;1.480;2022-12-13T08:31:03;25.57;;;12.67;;
14923;SDS011;7554;43.600;1.480;2022-12-13T08:33:35;24.70;;;12.10;;
14923;SDS011;7554;43.600;1.480;2022-12-13T08:36:08;33.73;;;19.73;;
14923;SDS011;7554;43.600;1.480;2022-12-13T08:38:36;24.03;;;12.93;;
14923;SDS011;7554;43.600;1.480;2022-12-13T08:41:05;26.30;;;11.57;;
14923;SDS011;7554;43.600;1.480;2022-12-13T08:43:33;25.77;;;11.90;;
14923;SDS011;7554;43.600;1.480;2022-12-13T08:46:00;24.23;;;11.90;;
14923;SDS011;7554;43.600;1.480;2022-12-13T08:48:28;19.07;;;10.83;;
14923;SDS011;7554;43.600;1.480;2022-12-13T08:50:58;18.40;;;10.30;;
14923;SDS011;7554;43.600;1.480;2022-12-13T08:53:26;22.83;;;11.43;;
14923;SDS011;7554;43.600;1.480;2022-12-13T08:55:58;17.13;;;10.23;;
14923;SDS011;7554;43.600;1.480;2022-12-13T08:58:28;22.27;;;10.13;;
14923;SDS011;7554;43.600;1.480;2022-12-13T09:00:55;15.67;;;9.90;;
14923;SDS011;7554;43.600;1.480;2022-12-13T09:03:23;16.83;;;10.40;;
14923;SDS011;7554;43.600;1.480;2022-12-13T09:05:51;16.20;;;10.30;;
14923;SDS011;7554;43.600;1.480;2022-12-13T09:08:18;18.67;;;10.97;;
14923;SDS011;7554;43.600;1.480;2022-12-13T09:10:54;17.50;;;10.90;;
14923;SDS011;7554;43.600;1.480;2022-12-13T09:13:22;19.20;;;10.37;;
14923;SDS011;7554;43.600;1.480;2022-12-13T09:15:51;21.37;;;11.67;;
14923;SDS011;7554;43.600;1.480;2022-12-13T09:18:19;21.87;;;11.23;;
14923;SDS011;7554;43.600;1.480;2022-12-13T09:20:46;17.87;;;11.80;;
14923;SDS011;7554;43.600;1.480;2022-12-13T09:23:13;20.77;;;11.87;;
14923;SDS011;7554;43.600;1.480;2022-12-13T09:25:41;20.37;;;12.50;;
14923;SDS011;7554;43.600;1.480;2022-12-13T09:28:09;20.27;;;13.17;;
14923;SDS011;7554;43.600;1.480;2022-12-13T09:30:37;21.37;;;11.33;;
14923;SDS011;7554;43.600;1.480;2022-12-13T09:33:06;24.17;;;12.20;;
14923;SDS011;7554;43.600;1.480;2022-12-13T09:35:36;17.43;;;11.83;;
14923;SDS011;7554;43.600;1.480;2022-12-13T09:38:03;18.23;;;10.60;;
14923;SDS011;7554;43.600;1.480;2022-12-13T09:40:31;14.63;;;10.37;;
14923;SDS011;7554;43.600;1.480;2022-12-13T09:43:00;17.70;;;10.17;;
14923;SDS011;7554;43.600;1.480;2022-12-13T09:45:28;14.77;;;9.90;;
14923;SDS011;7554;43.600;1.480;2022-12-13T09:47:57;16.40;;;9.57;;
14923;SDS011;7554;43.600;1.480;2022-12-13T09:50:27;14.03;;;8.57;;
14923;SDS011;7554;43.600;1.480;2022-12-13T09:52:57;14.70;;;9.10;;
14923;SDS011;7554;43.600;1.480;2022-12-13T09:55:25;11.80;;;8.47;;
14923;SDS011;7554;43.600;1.480;2022-12-13T09:57:56;11.80;;;7.90;;
14923;SDS011;7554;43.600;1.480;2022-12-13T10:00:27;16.03;;;10.13;;
14923;SDS011;7554;43.600;1.480;2022-12-13T10:03:01;21.10;;;11.10;;
14923;SDS011;7554;43.600;1.480;2022-12-13T10:05:31;17.37;;;10.83;;
14923;SDS011;7554;43.600;1.480;2022-12-13T10:08:03;13.77;;;9.43;;
14923;SDS011;7554;43.600;1.480;2022-12-13T10:10:33;14.20;;;8.87;;
14923;SDS011;7554;43.600;1.480;2022-12-13T10:13:02;12.47;;;8.30;;
14923;SDS011;7554;43.600;1.480;2022-12-13T10:15:37;12.73;;;8.40;;
14923;SDS011;7554;43.600;1.480;2022-12-13T10:18:07;13.03;;;8.50;;
14923;SDS011;7554;43.600;1.480;2022-12-13T10:20:39;15.13;;;9.40;;
14923;SDS011;7554;43.600;1.480;2022-12-13T10:23:07;12.53;;;8.00;;
14923;SDS011;7554;43.600;1.480;2022-12-13T10:25:42;14.63;;;8.17;;
14923;SDS011;7554;43.600;1.480;2022-12-13T10:28:14;12.17;;;7.97;;
14923;SDS011;7554;43.600;1.480;2022-12-13T10:30:44;12.50;;;8.07;;
14923;SDS011;7554;43.600;1.480;2022-12-13T10:33:18;11.40;;;7.77;;
14923;SDS011;7554;43.600;1.480;2022-12-13T10:36:05;10.90;;;8.37;;
14923;SDS011;7554;43.600;1.480;2022-12-13T10:38:38;15.73;;;7.80;;
14923;SDS011;7554;43.600;1.480;2022-12-13T10:41:26;12.27;;;8.13;;
14923;SDS011;7554;43.600;1.480;2022-12-13T10:44:07;11.53;;;8.30;;
14923;SDS011;7554;43.600;1.480;2022-12-13T10:46:46;9.67;;;7.77;;
14923;SDS011;7554;43.600;1.480;2022-12-13T10:49:16;11.47;;;8.27;;
14923;SDS011;7554;43.600;1.480;2022-12-13T10:51:47;16.97;;;8.57;;
14923;SDS011;7554;43.600;1.480;2022-12-13T10:54:17;9.40;;;7.87;;
14923;SDS011;7554;43.600;1.480;2022-12-13T10:56:51;9.90;;;7.07;;
14923;SDS011;7554;43.600;1.480;2022-12-13T10:59:25;12.17;;;7.83;;
14923;SDS011;7554;43.600;1.480;2022-12-13T11:01:57;11.83;;;8.90;;
14923;SDS011;7554;43.600;1.480;2022-12-13T11:04:26;12.43;;;9.20;;
14923;SDS011;7554;43.600;1.480;2022-12-13T11:06:58;12.67;;;8.40;;
14923;SDS011;7554;43.600;1.480;2022-12-13T11:09:27;12.00;;;8.70;;
14923;SDS011;7554;43.600;1.480;2022-12-13T11:11:57;13.90;;;7.80;;
14923;SDS011;7554;43.600;1.480;2022-12-13T11:14:28;14.57;;;8.03;;
14923;SDS011;7554;43.600;1.480;2022-12-13T11:16:58;13.03;;;6.90;;
14923;SDS011;7554;43.600;1.480;2022-12-13T11:19:34;11.10;;;7.30;;
14923;SDS011;7554;43.600;1.480;2022-12-13T11:22:06;10.43;;;6.47;;
14923;SDS011;7554;43.600;1.480;2022-12-13T11:24:36;7.60;;;5.80;;
14923;SDS011;7554;43.600;1.480;2022-12-13T11:27:09;8.67;;;5.80;;
14923;SDS011;7554;43.600;1.480;2022-12-13T11:30:02;14.07;;;5.77;;
14923;SDS011;7554;43.600;1.480;2022-12-13T11:32:40;7.97;;;5.27;;
14923;SDS011;7554;43.600;1.480;2022-12-13T11:35:28;9.30;;;6.23;;
14923;SDS011;7554;43.600;1.480;2022-12-13T11:38:04;12.13;;;6.47;;
14923;SDS011;7554;43.600;1.480;2022-12-13T11:40:40;9.13;;;4.70;;
14923;SDS011;7554;43.600;1.480;2022-12-13T11:43:14;7.77;;;5.73;;
14923;SDS011;7554;43.600;1.480;2022-12-13T11:45:51;6.83;;;5.03;;
14923;SDS011;7554;43.600;1.480;2022-12-13T11:48:22;10.33;;;5.30;;
14923;SDS011;7554;43.600;1.480;2022-12-13T11:50:58;11.87;;;5.23;;
14923;SDS011;7554;43.600;1.480;2022-12-13T11:53:29;8.33;;;5.50;;
14923;SDS011;7554;43.600;1.480;2022-12-13T11:56:03;8.47;;;5.53;;
14923;SDS011;7554;43.600;1.480;2022-12-13T11:58:38;9.07;;;5.10;;
14923;SDS011;7554;43.600;1.480;2022-12-13T12:01:11;9.10;;;5.30;;
14923;SDS011;7554;43.600;1.480;2022-12-13T12:03:42;9.03;;;5.47;;
14923;SDS011;7554;43.600;1.480;2022-12-13T12:06:13;8.17;;;5.10;;
14923;SDS011;7554;43.600;1.480;2022-12-13T12:08:50;9.53;;;5.83;;
14923;SDS011;7554;43.600;1.480;2022-12-13T12:11:24;9.57;;;5.20;;
14923;SDS011;7554;43.600;1.480;2022-12-13T12:13:55;5.80;;;4.93;;
14923;SDS011;7554;43.600;1.480;2022-12-13T12:16:29;8.13;;;5.10;;
14923;SDS011;7554;43.600;1.480;2022-12-13T12:19:04;8.57;;;6.00;;
14923;SDS011;7554;43.600;1.480;2022-12-13T12:21:37;10.50;;;7.40;;
14923;SDS011;7554;43.600;1.480;2022-12-13T12:24:22;10.50;;;8.63;;
14923;SDS011;7554;43.600;1.480;2022-12-13T12:26:56;13.03;;;8.57;;
14923;SDS011;7554;43.600;1.480;2022-12-13T12:32:30;13.37;;;9.60;;
14923;SDS011;7554;43.600;1.480;2022-12-13T12:35:06;16.50;;;11.47;;
14923;SDS011;7554;43.600;1.480;2022-12-13T12:37:51;20.97;;;12.03;;
14923;SDS011;7554;43.600;1.480;2022-12-13T12:40:40;17.00;;;11.90;;
14923;SDS011;7554;43.600;1.480;2022-12-13T12:43:25;14.20;;;9.67;;
14923;SDS011;7554;43.600;1.480;2022-12-13T12:46:01;17.93;;;9.60;;
14923;SDS011;7554;43.600;1.480;2022-12-13T12:48:47;13.80;;;10.23;;
14923;SDS011;7554;43.600;1.480;2022-12-13T12:51:30;16.40;;;11.47;;
14923;SDS011;7554;43.600;1.480;2022-12-13T12:54:08;15.63;;;10.50;;
14923;SDS011;7554;43.600;1.480;2022-12-13T12:56:47;17.40;;;10.50;;
14923;SDS011;7554;43.600;1.480;2022-12-13T12:59:24;17.10;;;10.33;;
14923;SDS011;7554;43.600;1.480;2022-12-13T13:01:59;12.03;;;8.63;;
14923;SDS011;7554;43.600;1.480;2022-12-13T13:04:32;12.60;;;8.07;;
14923;SDS011;7554;43.600;1.480;2022-12-13T13:07:09;12.20;;;8.27;;
14923;SDS011;7554;43.600;1.480;2022-12-13T13:09:40;9.70;;;7.67;;
14923;SDS011;7554;43.600;1.480;2022-12-13T13:12:09;12.73;;;8.63;;
14923;SDS011;7554;43.600;1.480;2022-12-13T13:14:38;9.50;;;7.50;;
14923;SDS011;7554;43.600;1.480;2022-12-13T13:20:11;14.90;;;8.30;;
14923;SDS011;7554;43.600;1.480;2022-12-13T13:22:43;9.40;;;7.20;;
14923;SDS011;7554;43.600;1.480;2022-12-13T13:28:02;11.90;;;7.37;;
14923;SDS011;7554;43.600;1.480;2022-12-13T13:30:32;11.47;;;7.70;;
14923;SDS011;7554;43.600;1.480;2022-12-13T13:33:01;11.27;;;7.30;;
14923;SDS011;7554;43.600;1.480;2022-12-13T13:44:51;20.67;;;9.93;;
14923;SDS011;7554;43.600;1.480;2022-12-13T13:53:33;23.10;;;8.90;;
14923;SDS011;7554;43.600;1.480;2022-12-13T14:06:00;21.80;;;10.00;;
14923;SDS011;7554;43.600;1.480;2022-12-13T14:08:58;18.10;;;11.20;;
14923;SDS011;7554;43.600;1.480;2022-12-13T14:11:49;17.77;;;10.97;;
14923;SDS011;7554;43.600;1.480;2022-12-13T14:14:59;15.20;;;10.40;;
14923;SDS011;7554;43.600;1.480;2022-12-13T14:21:04;13.83;;;10.43;;
14923;SDS011;7554;43.600;1.480;2022-12-13T14:23:46;15.70;;;10.80;;
14923;SDS011;7554;43.600;1.480;2022-12-13T14:26:27;21.13;;;12.07;;
14923;SDS011;7554;43.600;1.480;2022-12-13T14:29:04;17.50;;;10.67;;
14923;SDS011;7554;43.600;1.480;2022-12-13T14:31:39;13.97;;;9.70;;
14923;SDS011;7554;43.600;1.480;2022-12-13T14:34:14;19.17;;;10.47;;
14923;SDS011;7554;43.600;1.480;2022-12-13T14:36:54;12.50;;;7.33;;
14923;SDS011;7554;43.600;1.480;2022-12-13T14:39:22;7.50;;;5.83;;
14923;SDS011;7554;43.600;1.480;2022-12-13T14:41:51;5.07;;;3.73;;
14923;SDS011;7554;43.600;1.480;2022-12-13T14:44:20;8.70;;;4.87;;
14923;SDS011;7554;43.600;1.480;2022-12-13T14:46:50;7.27;;;5.13;;
14923;SDS011;7554;43.600;1.480;2022-12-13T14:49:19;8.83;;;5.13;;
14923;SDS011;7554;43.600;1.480;2022-12-13T14:51:48;5.33;;;4.07;;
14923;SDS011;7554;43.600;1.480;2022-12-13T14:54:28;7.10;;;4.97;;
14923;SDS011;7554;43.600;1.480;2022-12-13T14:57:00;9.37;;;5.00;;
14923;SDS011;7554;43.600;1.480;2022-12-13T14:59:28;7.20;;;4.70;;
14923;SDS011;7554;43.600;1.480;2022-12-13T15:01:58;8.20;;;5.20;;
14923;SDS011;7554;43.600;1.480;2022-12-13T15:04:28;7.83;;;5.67;;
14923;SDS011;7554;43.600;1.480;2022-12-13T15:06:59;7.50;;;5.63;;
14923;SDS011;7554;43.600;1.480;2022-12-13T15:09:33;10.87;;;6.43;;
14923;SDS011;7554;43.600;1.480;2022-12-13T15:12:07;8.47;;;6.10;;
14923;SDS011;7554;43.600;1.480;2022-12-13T15:14:36;9.37;;;5.73;;
14923;SDS011;7554;43.600;1.480;2022-12-13T15:17:15;8.87;;;5.30;;
14923;SDS011;7554;43.600;1.480;2022-12-13T15:19:54;6.40;;;5.13;;
14923;SDS011;7554;43.600;1.480;2022-12-13T15:22:21;9.30;;;6.00;;
14923;SDS011;7554;43.600;1.480;2022-12-13T15:24:50;9.90;;;6.00;;
14923;SDS011;7554;43.600;1.480;2022-12-13T15:27:19;10.37;;;7.60;;
14923;SDS011;7554;43.600;1.480;2022-12-13T15:29:48;9.90;;;7.10;;
14923;SDS011;7554;43.600;1.480;2022-12-13T15:32:18;15.73;;;7.10;;
14923;SDS011;7554;43.600;1.480;2022-12-13T15:34:47;10.27;;;6.40;;
14923;SDS011;7554;43.600;1.480;2022-12-13T15:37:17;10.67;;;5.87;;
14923;SDS011;7554;43.600;1.480;2022-12-13T15:39:52;9.07;;;5.87;;
14923;SDS011;7554;43.600;1.480;2022-12-13T15:42:24;11.77;;;6.13;;
14923;SDS011;7554;43.600;1.480;2022-12-13T15:44:57;10.03;;;6.33;;
14923;SDS011;7554;43.600;1.480;2022-12-13T15:47:27;7.27;;;5.07;;
14923;SDS011;7554;43.600;1.480;2022-12-13T15:49:55;9.70;;;5.13;;
14923;SDS011;7554;43.600;1.480;2022-12-13T15:52:27;9.53;;;6.00;;
14923;SDS011;7554;43.600;1.480;2022-12-13T15:55:16;11.17;;;6.20;;
14923;SDS011;7554;43.600;1.480;2022-12-13T15:57:50;13.00;;;6.37;;
14923;SDS011;7554;43.600;1.480;2022-12-13T16:00:20;10.83;;;6.30;;
14923;SDS011;7554;43.600;1.480;2022-12-13T16:02:50;11.73;;;7.57;;
14923;SDS011;7554;43.600;1.480;2022-12-13T16:05:24;11.23;;;6.63;;
14923;SDS011;7554;43.600;1.480;2022-12-13T16:07:55;15.07;;;8.53;;
14923;SDS011;7554;43.600;1.480;2022-12-13T16:10:27;14.03;;;8.30;;